Time;durP1;ratioP1;P1;durP2;ratioP2;P2;SDS_P1;SDS_P2;PMS_P1;PMS_P2;Temp;Humidity;BMP_temperature;BMP_pressure;BME280_temperature;BME280_humidity;BME280_pressure;Samples;Min_cycle;Max_cycle;Signal;HPM_P1;HPM_P2
2022/09/19 00:00:39;;;;;;;17.58;16.05;;;15.30;70.60;;;;;;5007720;28;20041;-77
2022/09/19 00:03:06;;;;;;;18.23;17.13;;;15.30;70.50;;;;;;5010736;28;20040;-77
2022/09/19 00:05:32;;;;;;;20.25;18.95;;;15.20;71.00;;;;;;5010890;28;20026;-77
2022/09/19 00:07:58;;;;;;;18.55;17.42;;;15.00;71.70;;;;;;5026070;28;20026;-77
2022/09/19 00:10:26;;;;;;;20.75;19.25;;;14.90;72.40;;;;;;5026318;28;20030;-77
2022/09/19 00:12:55;;;;;;;19.52;18.27;;;14.90;72.70;;;;;;5025313;28;20041;-77
2022/09/19 00:15:22;;;;;;;20.55;19.05;;;14.90;72.40;;;;;;5013307;28;20029;-77
2022/09/19 00:17:51;;;;;;;22.55;21.17;;;14.90;72.30;;;;;;5029064;28;20041;-77
2022/09/19 00:20:17;;;;;;;24.40;23.00;;;14.80;73.00;;;;;;5030600;28;20387;-77
2022/09/19 00:24:45;;;;;;;22.40;21.00;;;14.70;72.90;;;;;;5012070;28;20494;-77
2022/09/19 00:25:29;;;;;;;22.70;21.05;;;14.70;73.20;;;;;;5029669;28;20032;-76
2022/09/19 00:27:56;;;;;;;23.40;21.77;;;14.70;73.30;;;;;;5012796;28;20057;-77
2022/09/19 00:30:22;;;;;;;22.80;21.48;;;14.60;73.50;;;;;;4996460;28;20033;-77
2022/09/19 00:32:48;;;;;;;23.33;21.70;;;14.60;73.80;;;;;;5012428;28;20060;-77
2022/09/19 00:35:15;;;;;;;20.92;19.73;;;14.40;74.30;;;;;;5029379;28;20048;-77
2022/09/19 00:37:41;;;;;;;21.98;20.52;;;14.40;74.70;;;;;;5029272;28;20378;-77
2022/09/19 00:40:08;;;;;;;21.35;19.95;;;14.30;74.90;;;;;;5029091;28;20022;-77
2022/09/19 00:42:34;;;;;;;21.17;19.98;;;14.30;75.00;;;;;;5028963;28;20045;-77
2022/09/19 00:45:03;;;;;;;21.13;19.98;;;14.30;75.10;;;;;;5042271;28;20025;-77
2022/09/19 00:47:50;;;;;;;20.90;19.48;;;14.40;74.60;;;;;;5041372;28;20056;-77
2022/09/19 00:50:22;;;;;;;19.75;18.50;;;14.40;74.50;;;;;;5015255;28;20040;-77
2022/09/19 00:52:54;;;;;;;20.67;19.48;;;14.40;74.70;;;;;;4996085;28;20049;-77
2022/09/19 00:55:21;;;;;;;20.73;19.52;;;14.30;74.90;;;;;;5029097;28;20029;-77
2022/09/19 00:58:10;;;;;;;20.92;19.73;;;14.30;75.10;;;;;;5029090;28;20033;-77
2022/09/19 01:00:37;;;;;;;21.17;19.98;;;14.30;75.00;;;;;;5010854;28;20044;-77
2022/09/19 01:03:09;;;;;;;21.20;20.00;;;14.20;75.20;;;;;;5012333;28;20033;-77
2022/09/19 01:06:13;;;;;;;21.23;20.00;;;14.20;75.20;;;;;;5013251;28;20509;-77
2022/09/19 01:08:58;;;;;;;20.77;19.50;;;14.20;75.30;;;;;;5029166;28;20048;-77
2022/09/19 01:11:49;;;;;;;21.10;19.83;;;14.10;75.60;;;;;;5030182;28;20041;-77
2022/09/19 01:14:30;;;;;;;21.20;19.88;;;14.20;75.30;;;;;;4991284;28;20042;-77
2022/09/19 01:17:10;;;;;;;21.20;19.80;;;14.10;75.70;;;;;;5007466;28;20138;-77
2022/09/19 01:19:59;;;;;;;21.27;19.85;;;14.10;75.60;;;;;;4977043;28;20073;-76
2022/09/19 01:22:43;;;;;;;21.30;20.00;;;14.10;75.70;;;;;;5007498;28;20041;-77
2022/09/19 01:25:16;;;;;;;21.85;20.65;;;14.10;75.50;;;;;;5009371;28;20065;-77
2022/09/19 01:28:06;;;;;;;22.27;21.05;;;14.10;75.50;;;;;;4995101;28;20066;-77
2022/09/19 01:30:33;;;;;;;23.20;21.67;;;14.20;75.40;;;;;;5026561;28;20034;-77
2022/09/19 01:33:11;;;;;;;23.67;22.17;;;14.20;75.00;;;;;;4994891;28;20042;-77
2022/09/19 01:35:38;;;;;;;23.85;22.35;;;14.20;75.00;;;;;;5010774;28;20038;-77
2022/09/19 01:38:07;;;;;;;24.33;22.85;;;14.20;75.00;;;;;;4994914;28;20053;-77
2022/09/19 01:40:33;;;;;;;24.60;23.20;;;14.20;74.80;;;;;;4994778;28;20490;-77
2022/09/19 01:42:59;;;;;;;25.88;24.13;;;14.30;74.50;;;;;;5011253;28;20030;-77
2022/09/19 01:45:38;;;;;;;25.52;23.67;;;14.40;74.40;;;;;;5012806;28;20406;-77
2022/09/19 01:48:16;;;;;;;25.20;23.80;;;14.50;73.70;;;;;;4980239;28;20058;-77
2022/09/19 01:51:17;;;;;;;26.42;24.73;;;14.50;73.50;;;;;;4972732;28;20043;-77
2022/09/19 01:54:09;;;;;;;26.27;24.75;;;14.30;74.10;;;;;;4973348;28;20031;-77
2022/09/19 01:56:41;;;;;;;26.75;24.98;;;14.30;74.30;;;;;;4956715;28;20035;-77
2022/09/19 01:59:31;;;;;;;26.80;25.20;;;14.20;74.30;;;;;;4972780;28;20037;-77
2022/09/19 02:02:33;;;;;;;27.77;26.23;;;14.30;74.30;;;;;;4972514;28;20047;-77
2022/09/19 02:05:36;;;;;;;29.52;27.63;;;14.20;74.70;;;;;;4972780;28;20046;-77
2022/09/19 02:08:21;;;;;;;27.52;26.02;;;14.10;75.00;;;;;;4977100;28;20042;-77
2022/09/19 02:10:56;;;;;;;28.58;26.98;;;14.00;75.10;;;;;;4991050;28;20110;-77
2022/09/19 02:13:24;;;;;;;29.98;27.88;;;14.10;74.60;;;;;;4990647;28;20026;-77
2022/09/19 02:16:30;;;;;;;28.80;27.00;;;14.10;74.40;;;;;;4990406;28;20205;-77
2022/09/19 02:19:03;;;;;;;30.33;28.50;;;14.30;73.50;;;;;;4983974;28;20042;-77
2022/09/19 02:21:53;;;;;;;31.65;29.50;;;14.30;73.00;;;;;;4990022;28;20057;-76
2022/09/19 02:24:22;;;;;;;30.85;29.05;;;14.40;72.50;;;;;;4990939;28;20101;-77
2022/09/19 02:26:51;;;;;;;28.70;27.20;;;14.40;72.10;;;;;;4990502;28;20050;-77
2022/09/19 02:29:20;;;;;;;29.05;27.05;;;14.40;72.00;;;;;;5007234;28;20033;-76
2022/09/19 02:31:46;;;;;;;28.10;26.30;;;14.40;71.90;;;;;;5004020;28;20507;-77
2022/09/19 02:34:12;;;;;;;27.63;25.88;;;14.50;72.30;;;;;;4977626;28;20034;-77
2022/09/19 02:36:55;;;;;;;27.38;25.92;;;14.50;71.70;;;;;;4976629;28;20049;-77
2022/09/19 02:39:25;;;;;;;29.60;27.77;;;14.50;72.60;;;;;;4978756;28;20061;-77
2022/09/19 02:42:01;;;;;;;28.63;27.02;;;14.50;71.70;;;;;;4976794;28;20384;-77
2022/09/19 02:44:39;;;;;;;28.52;26.67;;;14.50;71.90;;;;;;4994814;28;20041;-77
2022/09/19 02:47:19;;;;;;;30.05;28.38;;;14.60;71.60;;;;;;4992932;28;20061;-77
2022/09/19 02:50:21;;;;;;;29.48;27.75;;;14.40;72.70;;;;;;4995433;28;20065;-77
2022/09/19 02:52:47;;;;;;;28.90;27.30;;;14.40;72.50;;;;;;4954454;28;20035;-77
2022/09/19 02:55:16;;;;;;;30.13;28.27;;;14.40;72.30;;;;;;4938529;28;20050;-77
2022/09/19 02:57:46;;;;;;;29.35;27.70;;;14.20;73.10;;;;;;4938411;28;20042;-77
2022/09/19 03:00:13;;;;;;;28.60;26.98;;;13.90;74.00;;;;;;4938671;28;20373;-77
2022/09/19 03:02:56;;;;;;;28.88;27.23;;;14.00;74.10;;;;;;4937942;28;20047;-77
2022/09/19 03:05:24;;;;;;;29.15;27.45;;;14.00;73.70;;;;;;4940969;28;20042;-77
2022/09/19 03:08:00;;;;;;;28.38;26.60;;;14.00;73.60;;;;;;4938757;28;20042;-77
2022/09/19 03:10:30;;;;;;;26.92;25.40;;;14.00;73.10;;;;;;4938562;28;20034;-78
2022/09/19 03:13:00;;;;;;;27.98;26.13;;;14.10;73.10;;;;;;4938939;28;20035;-77
2022/09/19 03:15:47;;;;;;;29.13;27.30;;;14.20;72.80;;;;;;4953784;28;20058;-77
2022/09/19 03:18:14;;;;;;;28.13;26.23;;;14.00;73.30;;;;;;4923483;28;20066;-77
2022/09/19 03:21:03;;;;;;;28.70;26.75;;;14.00;73.50;;;;;;4954263;28;20022;-77
2022/09/19 03:23:39;;;;;;;27.65;25.65;;;13.80;74.00;;;;;;4954191;28;20534;-77
2022/09/19 03:26:10;;;;;;;26.10;24.60;;;13.60;75.20;;;;;;4938115;28;20046;-77
2022/09/19 03:28:36;;;;;;;;;;;13.60;75.50;;;;;;4994396;28;20061;-77
2022/09/19 03:31:02;;;;;;;25.98;24.17;;;13.50;76.50;;;;;;5011174;28;19910;-77
2022/09/19 03:33:28;;;;;;;26.90;25.20;;;13.40;75.50;;;;;;5010437;28;20033;-77
2022/09/19 03:35:57;;;;;;;25.88;24.27;;;13.40;75.90;;;;;;5011364;28;20500;-77
2022/09/19 03:38:23;;;;;;;26.48;24.88;;;13.40;75.50;;;;;;5011499;28;20033;-77
2022/09/19 03:40:49;;;;;;;26.23;24.60;;;13.50;75.60;;;;;;5010982;28;20030;-77
2022/09/19 03:43:16;;;;;;;26.77;25.08;;;13.40;75.70;;;;;;5011229;28;20030;-76
2022/09/19 03:45:42;;;;;;;25.98;24.40;;;13.50;75.60;;;;;;5027255;28;20036;-77
2022/09/19 03:48:08;;;;;;;26.35;24.67;;;13.40;75.80;;;;;;5018289;28;20061;-77
2022/09/19 03:50:34;;;;;;;26.40;25.00;;;13.40;75.80;;;;;;5011174;28;20475;-77
2022/09/19 03:53:01;;;;;;;26.88;25.15;;;13.20;76.60;;;;;;5009897;28;20026;-77
2022/09/19 03:55:27;;;;;;;26.02;24.23;;;13.10;77.10;;;;;;5009560;28;20386;-77
2022/09/19 03:57:53;;;;;;;24.98;23.58;;;13.20;76.80;;;;;;5009953;28;20040;-77
2022/09/19 04:00:19;;;;;;;25.15;23.65;;;13.20;76.80;;;;;;5010921;28;20034;-77
2022/09/19 04:02:45;;;;;;;24.77;23.23;;;13.20;76.60;;;;;;5011047;28;20487;-77
2022/09/19 04:05:13;;;;;;;25.08;23.02;;;13.20;76.80;;;;;;5009893;28;20033;-77
2022/09/19 04:07:39;;;;;;;24.02;22.45;;;13.00;77.20;;;;;;5010937;28;20026;-76
2022/09/19 04:10:06;;;;;;;23.85;21.88;;;13.10;77.60;;;;;;5010794;28;20034;-77
2022/09/19 04:12:33;;;;;;;22.45;21.05;;;13.00;77.80;;;;;;4993534;28;20041;-77
2022/09/19 04:15:00;;;;;;;22.98;21.48;;;13.10;77.40;;;;;;5009805;28;20490;-77
2022/09/19 04:17:27;;;;;;;22.77;21.40;;;13.10;77.30;;;;;;4977103;28;20406;-77
2022/09/19 04:19:54;;;;;;;22.50;21.20;;;13.20;77.50;;;;;;4993607;28;20038;-77
2022/09/19 04:22:21;;;;;;;22.55;21.25;;;13.30;76.20;;;;;;4993434;28;20045;-77
2022/09/19 04:24:48;;;;;;;22.40;21.10;;;13.30;75.50;;;;;;5009371;28;20030;-77
2022/09/19 04:27:14;;;;;;;22.95;21.13;;;13.40;75.00;;;;;;5009509;28;20022;-77
2022/09/19 04:29:43;;;;;;;24.45;23.08;;;13.40;75.50;;;;;;4993855;28;20034;-77
2022/09/19 04:32:09;;;;;;;23.65;22.27;;;13.50;74.90;;;;;;4993586;28;20082;-77
2022/09/19 04:34:36;;;;;;;24.13;22.63;;;13.60;74.20;;;;;;4993650;28;20034;-77
2022/09/19 04:37:06;;;;;;;23.00;21.40;;;13.60;74.20;;;;;;4993607;28;20057;-77
2022/09/19 04:39:32;;;;;;;25.00;22.90;;;13.70;73.90;;;;;;5009488;28;20030;-77
2022/09/19 04:42:01;;;;;;;24.30;22.70;;;13.60;74.70;;;;;;4990360;28;20053;-76
2022/09/19 04:44:29;;;;;;;25.55;23.95;;;13.60;73.90;;;;;;5007720;28;20029;-77
2022/09/19 04:46:55;;;;;;;26.42;24.73;;;13.50;74.10;;;;;;5027067;28;20050;-77
2022/09/19 04:49:22;;;;;;;24.40;23.10;;;13.60;73.90;;;;;;4993222;28;20372;-77
2022/09/19 04:51:48;;;;;;;23.90;22.50;;;13.50;74.90;;;;;;5009322;28;20394;-77
2022/09/19 04:54:14;;;;;;;22.85;21.55;;;13.50;74.60;;;;;;4992922;28;20034;-77
2022/09/19 04:56:44;;;;;;;22.88;21.58;;;13.50;75.00;;;;;;4993180;28;20034;-77
2022/09/19 04:59:10;;;;;;;22.92;21.33;;;13.40;74.80;;;;;;4995371;28;20026;-77
2022/09/19 05:01:37;;;;;;;23.25;21.35;;;13.30;75.40;;;;;;5012508;28;20046;-77
2022/09/19 05:04:06;;;;;;;22.30;20.80;;;13.30;75.60;;;;;;4997010;28;20027;-77
2022/09/19 05:06:32;;;;;;;21.90;20.50;;;13.40;75.30;;;;;;4981306;28;20049;-77
2022/09/19 05:08:58;;;;;;;21.85;20.30;;;13.40;75.10;;;;;;5012810;28;20402;-76
2022/09/19 05:11:24;;;;;;;20.38;18.98;;;13.40;75.00;;;;;;5014158;28;20109;-76
2022/09/19 05:13:52;;;;;;;20.65;19.27;;;13.40;74.60;;;;;;5012084;28;20364;-77
2022/09/19 05:16:18;;;;;;;20.88;19.50;;;13.40;74.30;;;;;;4996255;28;20100;-77
2022/09/19 05:18:45;;;;;;;19.30;18.08;;;13.30;74.00;;;;;;4996536;28;20036;-77
2022/09/19 05:21:13;;;;;;;20.48;19.08;;;13.30;74.30;;;;;;5012488;28;20029;-77
2022/09/19 05:23:39;;;;;;;20.60;19.40;;;13.30;74.00;;;;;;4980476;28;20184;-77
2022/09/19 05:26:10;;;;;;;20.67;19.10;;;13.30;74.00;;;;;;4994393;28;20034;-77
2022/09/19 05:28:37;;;;;;;18.85;17.15;;;13.30;74.00;;;;;;4996424;28;20038;-77
2022/09/19 05:31:05;;;;;;;21.10;19.75;;;13.30;74.70;;;;;;5012064;28;20034;-77
2022/09/19 05:33:32;;;;;;;17.80;16.27;;;13.20;74.90;;;;;;4997161;28;20082;-77
2022/09/19 05:36:00;;;;;;;17.02;15.88;;;13.20;75.10;;;;;;5012100;28;20022;-77
2022/09/19 05:38:27;;;;;;;18.83;17.45;;;13.10;75.50;;;;;;4996816;28;20049;-77
2022/09/19 05:40:53;;;;;;;17.48;16.33;;;13.10;75.70;;;;;;5012502;28;20030;-77
2022/09/19 05:43:20;;;;;;;17.70;16.60;;;13.00;76.20;;;;;;4980211;28;20042;-77
2022/09/19 05:45:46;;;;;;;18.73;17.25;;;12.90;76.30;;;;;;5014533;28;20502;-77
2022/09/19 05:48:18;;;;;;;17.52;16.17;;;12.90;76.50;;;;;;5019691;28;20430;-77
2022/09/19 05:50:45;;;;;;;17.95;16.70;;;12.90;76.80;;;;;;5011634;28;20034;-77
2022/09/19 05:55:56;;;;;;;18.25;16.85;;;13.00;76.70;;;;;;5013807;28;20493;-77
2022/09/19 05:58:22;;;;;;;18.33;16.83;;;13.00;76.50;;;;;;5012270;28;20030;-77
2022/09/19 06:00:48;;;;;;;17.60;16.50;;;13.00;75.90;;;;;;4995258;28;20034;-77
2022/09/19 06:03:16;;;;;;;19.17;17.52;;;13.10;75.80;;;;;;5011906;28;20045;-77
2022/09/19 06:05:43;;;;;;;17.77;16.45;;;13.10;75.60;;;;;;4979640;28;20509;-77
2022/09/19 06:08:11;;;;;;;19.42;17.98;;;13.10;75.40;;;;;;4995752;28;20492;-77
2022/09/19 06:10:39;;;;;;;19.90;18.17;;;13.20;75.20;;;;;;5011069;28;20025;-77
2022/09/19 06:13:12;;;;;;;19.52;18.00;;;13.20;74.80;;;;;;4994806;28;20026;-77
2022/09/19 06:15:39;;;;;;;19.55;18.35;;;13.10;75.20;;;;;;4995105;28;20026;-77
2022/09/19 06:18:05;;;;;;;20.17;18.23;;;13.20;75.30;;;;;;4995569;28;20049;-77
2022/09/19 06:20:31;;;;;;;19.10;17.83;;;13.30;74.80;;;;;;4979175;28;20057;-77
2022/09/19 06:23:00;;;;;;;21.65;19.95;;;13.20;75.40;;;;;;4979042;28;20058;-77
2022/09/19 06:25:27;;;;;;;20.88;19.25;;;13.20;75.80;;;;;;5011742;28;20025;-77
2022/09/19 06:27:54;;;;;;;20.48;18.77;;;13.10;76.20;;;;;;5012653;28;20028;-77
2022/09/19 06:30:23;;;;;;;20.67;19.25;;;12.90;76.80;;;;;;5010457;28;20487;-77
2022/09/19 06:32:52;;;;;;;21.40;19.83;;;12.80;77.80;;;;;;5011516;28;20038;-77
2022/09/19 06:35:20;;;;;;;24.13;22.63;;;12.80;78.30;;;;;;5011340;28;20033;-77
2022/09/19 06:37:47;;;;;;;23.90;22.27;;;13.00;77.50;;;;;;5011702;28;20018;-77
2022/09/19 06:40:13;;;;;;;26.75;24.95;;;13.10;77.40;;;;;;4995654;28;20037;-77
2022/09/19 06:42:40;;;;;;;27.55;25.65;;;13.10;77.40;;;;;;4995335;28;20042;-77
2022/09/19 06:45:07;;;;;;;24.05;22.58;;;13.30;76.90;;;;;;4992134;28;20033;-77
2022/09/19 06:47:35;;;;;;;22.98;21.38;;;13.40;76.20;;;;;;5024330;28;20057;-77
2022/09/19 06:50:02;;;;;;;21.10;19.27;;;13.50;76.40;;;;;;4979290;28;20037;-77
2022/09/19 06:52:29;;;;;;;20.92;19.52;;;13.80;74.90;;;;;;4994985;28;20041;-77
2022/09/19 06:54:55;;;;;;;22.23;20.52;;;13.80;74.90;;;;;;5012501;28;20030;-77
2022/09/19 06:57:21;;;;;;;21.20;19.65;;;13.80;74.90;;;;;;4994879;28;20049;-77
2022/09/19 06:59:47;;;;;;;22.45;20.75;;;13.70;74.90;;;;;;4995137;28;20040;-77
2022/09/19 07:02:13;;;;;;;22.58;20.88;;;13.80;74.80;;;;;;4994142;28;20038;-77
2022/09/19 07:04:39;;;;;;;23.45;20.95;;;13.80;74.60;;;;;;4994632;28;20034;-77
2022/09/19 07:07:05;;;;;;;22.40;20.73;;;14.00;74.40;;;;;;4994836;28;20041;-77
2022/09/19 07:09:32;;;;;;;22.38;20.80;;;14.20;73.80;;;;;;4978825;28;20082;-77
2022/09/19 07:12:01;;;;;;;22.55;20.70;;;14.50;72.80;;;;;;5010970;28;20463;-77
2022/09/19 07:14:27;;;;;;;21.67;20.17;;;14.50;72.60;;;;;;4979591;28;20479;-77
2022/09/19 07:16:53;;;;;;;21.27;19.98;;;14.70;72.00;;;;;;4978344;28;20045;-77
2022/09/19 07:19:19;;;;;;;20.75;19.13;;;14.60;72.00;;;;;;5010805;28;20038;-77
2022/09/19 07:21:45;;;;;;;20.00;18.50;;;14.70;72.30;;;;;;4994444;28;20041;-77
2022/09/19 07:24:11;;;;;;;18.25;16.75;;;15.00;71.30;;;;;;5011016;28;20456;-77
2022/09/19 07:26:37;;;;;;;18.17;16.77;;;15.00;70.80;;;;;;4978435;28;20030;-77
2022/09/19 07:29:03;;;;;;;18.50;17.40;;;15.00;70.40;;;;;;5010692;28;20053;-77
2022/09/19 07:31:30;;;;;;;18.45;17.13;;;14.90;70.70;;;;;;5009849;28;20037;-77
2022/09/19 07:33:57;;;;;;;17.35;16.25;;;15.00;71.00;;;;;;5011817;28;20022;-77
2022/09/19 07:36:23;;;;;;;18.35;16.92;;;15.00;70.50;;;;;;4995017;28;20038;-77
2022/09/19 07:38:50;;;;;;;18.80;17.20;;;15.10;70.10;;;;;;5010667;28;20029;-77
2022/09/19 07:41:17;;;;;;;19.02;17.65;;;15.20;70.00;;;;;;5010321;28;20434;-77
2022/09/19 07:43:48;;;;;;;18.08;17.10;;;15.40;70.20;;;;;;4995586;28;20034;-77
2022/09/19 07:46:15;;;;;;;;;;;15.40;68.90;;;;;;5013310;28;20513;-77
2022/09/19 07:48:42;;;;;;;18.50;17.10;;;15.40;69.20;;;;;;5014061;28;19928;-77
2022/09/19 07:51:09;;;;;;;18.42;17.13;;;15.30;69.10;;;;;;5010390;28;20057;-77
2022/09/19 07:53:35;;;;;;;17.77;16.77;;;15.40;69.30;;;;;;5010430;28;20030;-77
2022/09/19 07:56:04;;;;;;;17.75;16.65;;;15.40;69.20;;;;;;4993865;28;20022;-77
2022/09/19 07:58:30;;;;;;;18.70;17.42;;;15.30;69.40;;;;;;5010437;28;20026;-77
2022/09/19 08:01:00;;;;;;;18.58;17.50;;;15.40;69.20;;;;;;4977468;28;20030;-77
2022/09/19 08:03:26;;;;;;;19.33;17.67;;;15.50;69.20;;;;;;4994132;28;20038;-77
2022/09/19 08:05:53;;;;;;;18.52;17.27;;;15.40;69.00;;;;;;4993806;28;20030;-77
2022/09/19 08:08:21;;;;;;;19.27;18.15;;;15.50;69.20;;;;;;4994054;28;20030;-77
2022/09/19 08:10:47;;;;;;;19.67;18.10;;;15.60;68.80;;;;;;5011423;28;20113;-77
2022/09/19 08:13:14;;;;;;;19.67;18.55;;;15.90;68.40;;;;;;4993755;28;20034;-77
2022/09/19 08:15:40;;;;;;;20.55;19.10;;;16.20;67.70;;;;;;4993363;28;20030;-77
2022/09/19 08:18:10;;;;;;;22.60;21.40;;;16.50;65.90;;;;;;4977678;28;20479;-77
2022/09/19 08:20:36;;;;;;;21.38;20.00;;;16.30;66.30;;;;;;4994311;28;20355;-77
2022/09/19 08:23:04;;;;;;;22.17;20.92;;;16.20;66.50;;;;;;5010217;28;20034;-77
2022/09/19 08:25:32;;;;;;;20.63;19.52;;;16.30;66.00;;;;;;4977781;28;20041;-77
2022/09/19 08:27:58;;;;;;;21.02;19.92;;;16.30;66.50;;;;;;5009757;28;20052;-77
2022/09/19 08:30:25;;;;;;;20.73;19.27;;;16.60;65.50;;;;;;4993791;28;20038;-77
2022/09/19 08:32:51;;;;;;;20.20;19.02;;;16.80;64.40;;;;;;4993231;28;20049;-77
2022/09/19 08:35:18;;;;;;;22.88;21.55;;;16.80;64.60;;;;;;4997337;28;20498;-77
2022/09/19 08:37:44;;;;;;;21.75;20.50;;;16.90;63.60;;;;;;5014265;28;20471;-77
2022/09/19 08:40:21;;;;;;;22.98;21.40;;;17.10;63.30;;;;;;5013911;28;20045;-77
2022/09/19 08:43:06;;;;;;;23.20;21.80;;;17.20;63.30;;;;;;5013615;28;20037;-77
2022/09/19 08:45:40;;;;;;;26.77;25.17;;;17.30;62.70;;;;;;5030108;28;20366;-77
2022/09/19 08:48:10;;;;;;;28.30;26.42;;;17.20;62.80;;;;;;5022113;28;20406;-77
2022/09/19 08:50:36;;;;;;;32.40;30.60;;;17.20;62.90;;;;;;4997714;28;20029;-77
2022/09/19 08:53:04;;;;;;;29.30;27.50;;;17.40;62.50;;;;;;5013823;28;20077;-78
2022/09/19 08:55:32;;;;;;;31.92;30.25;;;17.60;62.50;;;;;;4981568;28;20391;-77
2022/09/19 08:58:06;;;;;;;37.95;35.95;;;17.70;61.70;;;;;;5013470;28;20472;-77
2022/09/19 09:00:41;;;;;;;39.78;37.38;;;17.80;62.20;;;;;;4997270;28;20030;-77
2022/09/19 09:03:14;;;;;;;41.58;39.55;;;17.80;61.30;;;;;;4997033;28;20042;-77
2022/09/19 09:06:18;;;;;;;45.78;43.38;;;17.80;61.20;;;;;;4981707;28;20042;-77
2022/09/19 09:08:57;;;;;;;42.30;40.10;;;18.00;60.90;;;;;;5012494;28;20046;-77
2022/09/19 09:11:48;;;;;;;43.80;41.55;;;18.10;59.80;;;;;;5012293;28;20033;-77
2022/09/19 09:14:51;;;;;;;40.33;38.20;;;18.00;60.40;;;;;;5013092;28;20122;-77
2022/09/19 09:17:35;;;;;;;36.30;34.47;;;18.00;60.30;;;;;;4940325;28;20411;-77
2022/09/19 09:20:13;;;;;;;39.33;37.13;;;18.30;60.00;;;;;;4957771;28;20501;-78
2022/09/19 09:23:19;;;;;;;40.15;38.03;;;18.50;59.70;;;;;;4941923;28;20038;-78
2022/09/19 09:25:49;;;;;;;40.35;38.15;;;18.60;59.40;;;;;;4928361;28;20042;-78
2022/09/19 09:28:32;;;;;;;33.38;31.50;;;18.70;59.00;;;;;;4972356;28;20037;-78
2022/09/19 09:31:25;;;;;;;33.13;31.33;;;18.90;58.70;;;;;;4972405;28;20046;-78
2022/09/19 09:34:07;;;;;;;30.77;29.13;;;19.10;58.70;;;;;;4942413;28;20046;-78
2022/09/19 09:36:38;;;;;;;29.45;27.75;;;19.30;57.70;;;;;;4942341;28;20082;-78
2022/09/19 09:39:26;;;;;;;31.65;29.95;;;19.40;57.30;;;;;;4941437;28;20047;-78
2022/09/19 09:41:56;;;;;;;28.80;27.20;;;19.40;57.30;;;;;;4937485;29;20031;-78
2022/09/19 09:44:47;;;;;;;29.52;27.95;;;19.50;56.70;;;;;;4976286;28;20043;-78
2022/09/19 09:47:19;;;;;;;31.15;29.20;;;19.50;56.50;;;;;;4939750;28;20051;-78
2022/09/19 09:49:46;;;;;;;31.30;29.70;;;19.60;56.80;;;;;;4972650;28;20166;-78
2022/09/19 09:52:36;;;;;;;31.67;30.08;;;19.60;56.20;;;;;;4934770;28;20495;-78
2022/09/19 09:58:33;;;;;;;29.35;27.83;;;19.70;56.10;;;;;;5006608;28;20044;-78
2022/09/19 10:04:34;;;;;;;27.05;25.70;;;19.70;53.40;;;;;;5006069;28;20041;-78
2022/09/19 10:07:58;;;;;;;25.40;24.10;;;19.80;54.00;;;;;;5012498;28;20037;-77
2022/09/19 10:10:24;;;;;;;26.38;24.98;;;19.90;53.00;;;;;;4970986;28;20389;-78
2022/09/19 10:13:02;;;;;;;24.42;23.13;;;19.90;52.80;;;;;;4939820;28;20403;-78
2022/09/19 10:15:28;;;;;;;25.77;24.40;;;19.70;52.80;;;;;;4940698;28;20049;-78
2022/09/19 10:18:05;;;;;;;26.00;24.70;;;19.80;52.60;;;;;;4940322;28;20071;-78
2022/09/19 10:20:35;;;;;;;24.83;23.35;;;19.60;52.10;;;;;;4942264;28;20482;-78
2022/09/19 10:23:01;;;;;;;24.80;23.27;;;19.70;52.10;;;;;;4940148;28;20043;-78
2022/09/19 10:25:27;;;;;;;24.23;22.92;;;19.60;52.30;;;;;;4923454;28;20500;-78
2022/09/19 10:27:53;;;;;;;24.80;23.60;;;19.60;52.30;;;;;;4955754;28;20403;-77
2022/09/19 10:30:26;;;;;;;26.70;25.10;;;19.70;51.80;;;;;;4955186;28;20046;-78
2022/09/19 10:32:52;;;;;;;25.73;24.33;;;19.70;52.00;;;;;;4956066;28;20046;-78
2022/09/19 10:35:21;;;;;;;25.83;24.60;;;19.80;52.30;;;;;;4939057;28;20043;-77
2022/09/19 10:37:59;;;;;;;24.50;23.08;;;19.90;50.80;;;;;;4971712;28;20050;-78
2022/09/19 10:40:25;;;;;;;23.85;22.65;;;19.90;51.20;;;;;;4954346;28;20487;-78
2022/09/19 10:42:54;;;;;;;25.98;24.52;;;20.00;50.20;;;;;;4939523;28;20047;-77
2022/09/19 10:45:26;;;;;;;25.20;23.90;;;20.00;49.70;;;;;;5010190;28;20466;-78
2022/09/19 10:48:15;;;;;;;24.33;23.05;;;20.00;49.70;;;;;;5021612;28;20054;-78
2022/09/19 10:50:42;;;;;;;24.05;22.55;;;19.90;49.80;;;;;;5011568;28;20479;-77
2022/09/19 10:53:30;;;;;;;24.13;22.73;;;19.90;49.60;;;;;;4979149;28;20380;-78
2022/09/19 10:55:59;;;;;;;25.02;23.67;;;19.80;49.50;;;;;;4994780;28;20048;-77
2022/09/19 10:58:28;;;;;;;22.30;21.10;;;19.70;49.60;;;;;;4979445;28;20045;-78
2022/09/19 11:01:04;;;;;;;24.73;23.38;;;19.60;50.00;;;;;;4979312;28;20045;-78
2022/09/19 11:03:35;;;;;;;24.48;23.17;;;19.80;49.90;;;;;;4979188;28;20053;-78
2022/09/19 11:06:05;;;;;;;24.80;23.38;;;20.00;49.80;;;;;;4995186;28;20018;-77
2022/09/19 11:08:45;;;;;;;26.15;24.73;;;20.00;49.50;;;;;;5010231;28;20040;-77
2022/09/19 11:11:22;;;;;;;24.45;23.15;;;20.10;49.40;;;;;;5010887;28;20029;-78
2022/09/19 11:14:16;;;;;;;26.27;25.02;;;20.20;50.30;;;;;;4995126;28;20038;-78
2022/09/19 11:17:00;;;;;;;27.45;26.00;;;20.40;48.50;;;;;;4995430;28;20030;-78
2022/09/19 11:19:54;;;;;;;25.67;24.48;;;20.50;47.50;;;;;;5012343;28;20026;-78
2022/09/19 11:22:44;;;;;;;28.65;27.27;;;20.70;47.00;;;;;;5012039;28;20036;-78
2022/09/19 11:25:34;;;;;;;28.83;26.88;;;20.60;46.90;;;;;;5011784;28;20502;-78
2022/09/19 11:28:04;;;;;;;27.75;26.33;;;20.60;46.90;;;;;;5010789;28;20364;-78
2022/09/19 11:30:32;;;;;;;24.00;22.80;;;20.40;47.00;;;;;;5010125;28;20041;-78
2022/09/19 11:33:21;;;;;;;23.27;22.08;;;20.20;47.60;;;;;;4994194;28;20042;-78
2022/09/19 11:35:57;;;;;;;24.30;23.00;;;20.20;48.00;;;;;;5010719;28;20037;-78
2022/09/19 11:38:33;;;;;;;24.05;22.85;;;20.30;47.90;;;;;;5010356;28;20022;-78
2022/09/19 11:41:04;;;;;;;26.10;24.80;;;20.40;48.10;;;;;;5010597;28;20044;-77
2022/09/19 11:43:53;;;;;;;25.90;24.17;;;20.30;48.10;;;;;;4994708;28;20052;-78
2022/09/19 11:46:19;;;;;;;28.33;26.92;;;20.30;48.20;;;;;;5040557;28;20363;-78
2022/09/19 11:48:54;;;;;;;26.05;24.65;;;20.50;47.80;;;;;;5034303;28;20064;-78
2022/09/19 11:51:26;;;;;;;24.55;23.25;;;20.50;47.70;;;;;;5014050;28;20509;-78
2022/09/19 11:54:00;;;;;;;24.45;23.13;;;20.50;47.50;;;;;;5030875;28;20033;-78
2022/09/19 11:56:36;;;;;;;22.67;21.52;;;20.40;48.20;;;;;;5030214;28;20041;-77
2022/09/19 11:59:24;;;;;;;23.27;21.98;;;20.20;48.40;;;;;;5031244;28;20347;-78
2022/09/19 12:02:09;;;;;;;24.17;22.65;;;20.10;49.20;;;;;;5029473;28;20029;-78
2022/09/19 12:04:48;;;;;;;24.95;23.48;;;20.30;47.80;;;;;;5031310;28;20044;-78
2022/09/19 12:07:30;;;;;;;23.65;22.45;;;20.20;48.30;;;;;;5030904;28;20057;-78
2022/09/19 12:10:03;;;;;;;30.77;29.23;;;20.20;47.80;;;;;;5029421;28;20044;-77
2022/09/19 12:12:30;;;;;;;25.08;23.67;;;20.30;48.60;;;;;;4998366;28;20034;-78
2022/09/19 12:15:22;;;;;;;25.58;24.27;;;20.40;48.30;;;;;;5013577;28;20497;-77
2022/09/19 12:18:11;;;;;;;32.67;31.00;;;20.50;47.70;;;;;;4993613;28;20034;-77
2022/09/19 12:20:45;;;;;;;27.77;26.38;;;20.50;47.20;;;;;;4993627;28;20042;-78
2022/09/19 12:26:22;;;;;;;30.63;28.92;;;20.30;46.30;;;;;;4989725;28;20041;-77
2022/09/19 12:28:58;;;;;;;30.08;28.58;;;20.40;46.10;;;;;;4989373;28;20039;-77
2022/09/19 12:31:29;;;;;;;29.33;27.83;;;20.60;45.90;;;;;;5003923;28;20038;-78
2022/09/19 12:34:07;;;;;;;29.50;27.63;;;20.80;46.10;;;;;;4988488;28;20515;-78
2022/09/19 12:36:36;;;;;;;30.33;28.45;;;21.00;45.60;;;;;;5002676;28;20046;-77
2022/09/19 12:39:06;;;;;;;28.30;26.90;;;21.10;45.60;;;;;;5005445;28;20022;-77
2022/09/19 12:41:42;;;;;;;30.17;28.33;;;21.10;46.30;;;;;;5018535;28;20380;-77
2022/09/19 12:44:23;;;;;;;29.05;27.55;;;21.00;46.10;;;;;;5008696;28;20526;-77
2022/09/19 12:47:20;;;;;;;29.42;27.92;;;20.90;46.00;;;;;;4977375;28;20045;-78
2022/09/19 12:49:56;;;;;;;28.42;27.02;;;21.10;45.80;;;;;;4986195;28;20042;-77
2022/09/19 12:52:41;;;;;;;43.80;41.45;;;21.30;45.90;;;;;;4988890;28;20037;-77
2022/09/19 12:55:19;;;;;;;31.25;29.65;;;21.40;44.70;;;;;;4988373;28;20050;-78
2022/09/19 12:57:45;;;;;;;29.17;27.63;;;21.50;44.90;;;;;;4987453;28;20054;-77
2022/09/19 13:00:11;;;;;;;30.80;29.30;;;21.40;44.50;;;;;;4989805;28;20030;-78
2022/09/19 13:02:43;;;;;;;28.85;27.17;;;21.30;45.20;;;;;;4978135;28;20045;-78
2022/09/19 13:05:24;;;;;;;29.67;27.67;;;21.40;45.80;;;;;;5008987;28;20484;-77
2022/09/19 13:07:52;;;;;;;27.02;25.58;;;21.70;44.80;;;;;;5009964;28;20026;-78